Airfield :
LOGIN :

Register | Disclaimer

   EN    FR    IT 

 










Legend :    VFR   Marginal VFR   IFR   Intensive IFR   Very Intensive IFR
Visi :
Ceiling :
>= 8 km
>= 3000ft
5 to 8 km
1000 to 3000 ft
1500m to 5 km
500 to 1000 ft
800 to 1500m
200 to 500 ft
< 800m
< 200 ft
Symbols :   Thunderstorms  Fog  Heavy snow  Heavy precipitations  Wind > 20 kt
SIGMETs :     Misc.  Thunderstorms  Icing  Turbulence  Mountain Waves  Volcanic Ashes







- Airport Elevation : -11 ft
- IATA code : AMS


EHAM - Amsterdam Schiphol

CURRENT METAR :
  • 250625Z 36004KT 320V040 CAVOK 15/10 Q1025 NOSIG

EXPIRED METARs :
  • 250555Z 01003KT 320V050 CAVOK 14/11 Q1025 NOSIG
  • 250525Z 36003KT 330V030 CAVOK 13/11 Q1025 NOSIG
  • 250455Z 04003KT 310V080 6000 NSC 12/12 Q1025 BECMG CAVOK
  • 250425Z 33003KT 250V050 3500 R18C/0500N R27/P2000N R18R/1900U R06/P2000N BR BCFG NSC 11/11 Q1025 BECMG CAVOK
  • 250355Z 33003KT 270V050 3500 0250NW R18C/0400D R27/P2000N R18R/0200D R06/P2000N BR BCFG NSC 10/10 Q1025 TEMPO 1800

TAF TAF EHAM
Valid from the 25 at 06:00 until the 26 at 12:00 UTC


250424Z 2506/2612 04006KT CAVOK
PROB30 2601/2605 7000 MIFG
No reported NOTAMs for that airfield.



MET'MAP, your aeronautical weather chart ! - Copyright ORBIFLY December 2007 - Disclaimer

ORBIFLY MET'MAP TEAM :

Programming & Development : Alexandra Zaïnal
Concept & Development : Baudouin d'Aumeries
Co-Development & Prog : Marc-Olivier Méhu
Technical & hardware support : Manuel Goepfert

Contact : metmap@orbifly.com




SOURCES & CREDITS :

   NOAA